createdAt,value
2023-04-07T00:00:58.811Z,41.67
2023-04-07T00:03:26.317Z,45.00
2023-04-07T00:06:08.101Z,35.00
2023-04-07T00:08:53.105Z,42.00
2023-04-07T00:11:35.722Z,40.33
2023-04-07T00:14:22.048Z,44.67
2023-04-07T00:17:07.470Z,38.00
2023-04-07T00:19:57.457Z,34.33
2023-04-07T00:22:44.119Z,38.67
2023-04-07T00:25:11.359Z,44.00
2023-04-07T00:27:38.378Z,45.33
2023-04-07T00:30:06.003Z,40.67
2023-04-07T00:32:34.119Z,38.67
2023-04-07T00:35:02.592Z,27.33
2023-04-07T00:37:29.634Z,42.33
2023-04-07T00:39:58.316Z,41.00
2023-04-07T00:42:26.004Z,40.00
2023-04-07T00:44:53.028Z,34.00
2023-04-07T00:47:20.859Z,38.67
2023-04-07T00:49:48.108Z,31.00
2023-04-07T00:52:15.589Z,34.67
2023-04-07T00:54:42.984Z,37.67
2023-04-07T00:57:10.014Z,34.33
2023-04-07T00:59:37.114Z,37.67
2023-04-07T01:02:22.411Z,38.00
2023-04-07T01:04:58.739Z,37.00
2023-04-07T01:08:15.969Z,40.33
2023-04-07T01:11:20.783Z,35.00
2023-04-07T01:14:12.978Z,34.33
2023-04-07T01:17:05.606Z,22.00
2023-04-07T01:20:05.956Z,31.33
2023-04-07T01:22:57.498Z,34.67
2023-04-07T01:25:48.639Z,34.33
2023-04-07T01:28:41.925Z,41.00
2023-04-07T01:31:10.990Z,33.67
2023-04-07T01:33:40.208Z,33.33
2023-04-07T01:36:09.212Z,42.33
2023-04-07T01:38:37.677Z,44.67
2023-04-07T01:41:06.461Z,48.67
2023-04-07T01:43:34.054Z,39.00
2023-04-07T01:46:02.829Z,40.33
2023-04-07T01:48:30.526Z,40.67
2023-04-07T01:50:58.473Z,39.00
2023-04-07T01:53:26.564Z,41.00
2023-04-07T01:55:55.060Z,39.00
2023-04-07T01:58:22.029Z,37.67
2023-04-07T02:00:49.765Z,37.67
2023-04-07T02:03:26.000Z,34.33
2023-04-07T02:05:56.894Z,39.33
2023-04-07T02:08:27.850Z,34.00
2023-04-07T02:10:56.755Z,33.33
2023-04-07T02:13:25.154Z,34.33
2023-04-07T02:15:55.151Z,37.00
2023-04-07T02:18:23.802Z,36.00
2023-04-07T02:20:53.386Z,43.00
2023-04-07T02:23:20.562Z,34.33
2023-04-07T02:25:47.651Z,34.00
2023-04-07T02:28:14.673Z,41.00
2023-04-07T02:30:42.117Z,34.00
2023-04-07T02:33:09.141Z,39.00
2023-04-07T02:35:36.223Z,37.00
2023-04-07T02:38:03.191Z,35.33
2023-04-07T02:40:30.628Z,33.67
2023-04-07T02:42:57.654Z,30.00
2023-04-07T02:45:24.831Z,34.67
2023-04-07T02:47:51.904Z,41.00
2023-04-07T02:50:18.949Z,26.00
2023-04-07T02:52:46.104Z,41.00
2023-04-07T02:55:13.126Z,38.67
2023-04-07T02:57:40.117Z,41.67
2023-04-07T03:00:08.566Z,41.00
2023-04-07T03:02:35.773Z,38.67
2023-04-07T03:05:04.622Z,37.67
2023-04-07T03:07:32.228Z,34.67
2023-04-07T03:09:59.198Z,38.67
2023-04-07T03:12:26.549Z,37.00
2023-04-07T03:14:53.530Z,36.67
2023-04-07T03:17:20.674Z,30.33
2023-04-07T03:19:47.725Z,36.33
2023-04-07T03:22:14.714Z,25.67
2023-04-07T03:24:41.789Z,29.33
2023-04-07T03:27:08.771Z,31.00
2023-04-07T03:29:35.770Z,30.33
2023-04-07T03:32:02.712Z,31.67
2023-04-07T03:34:29.712Z,35.67
2023-04-07T03:36:56.627Z,32.33
2023-04-07T03:39:23.630Z,32.67
2023-04-07T03:41:50.650Z,32.33
2023-04-07T03:44:17.824Z,33.33
2023-04-07T03:46:46.001Z,27.67
2023-04-07T03:49:13.023Z,40.67
2023-04-07T03:51:40.113Z,31.33
2023-04-07T03:54:07.060Z,30.00
2023-04-07T03:56:34.074Z,15.67
2023-04-07T03:59:01.200Z,41.33
2023-04-07T04:01:28.345Z,31.00
2023-04-07T04:03:55.523Z,7.33
2023-04-07T04:06:22.989Z,29.00
2023-04-07T04:08:49.963Z,38.67
2023-04-07T04:11:16.974Z,34.00
2023-04-07T04:13:43.980Z,41.00
2023-04-07T04:16:12.436Z,38.00
2023-04-07T04:18:41.555Z,30.67
2023-04-07T04:21:08.604Z,41.67
2023-04-07T04:23:35.527Z,34.00
2023-04-07T04:26:04.164Z,36.67
2023-04-07T04:28:31.589Z,38.00
2023-04-07T04:30:58.625Z,33.33
2023-04-07T04:33:25.913Z,44.00
2023-04-07T04:35:52.949Z,37.33
2023-04-07T04:38:20.013Z,38.00
2023-04-07T04:40:47.025Z,38.33
2023-04-07T04:43:13.956Z,35.33
2023-04-07T04:45:41.281Z,32.67
2023-04-07T04:48:08.308Z,31.00
2023-04-07T04:50:36.627Z,37.00
2023-04-07T04:53:03.784Z,37.00
2023-04-07T04:55:30.805Z,31.33
2023-04-07T04:57:58.338Z,32.33
2023-04-07T05:00:25.522Z,23.00
2023-04-07T05:02:52.753Z,29.67
2023-04-07T05:05:19.840Z,36.67
2023-04-07T05:07:47.013Z,31.00
2023-04-07T05:10:14.751Z,31.33
2023-04-07T05:12:41.788Z,32.67
2023-04-07T05:15:09.215Z,30.00
2023-04-07T05:17:36.470Z,33.67
2023-04-07T05:20:05.009Z,35.67
2023-04-07T05:22:32.303Z,29.00
2023-04-07T05:24:59.309Z,30.33
2023-04-07T05:27:26.581Z,30.67
2023-04-07T05:29:53.630Z,34.00
2023-04-07T05:32:20.607Z,30.33
2023-04-07T05:34:47.660Z,27.33
2023-04-07T05:37:14.585Z,32.33
2023-04-07T05:39:41.614Z,28.33
2023-04-07T05:42:08.535Z,30.33
2023-04-07T05:44:35.544Z,35.33
2023-04-07T05:47:02.695Z,27.00
2023-04-07T05:49:29.643Z,30.00
2023-04-07T05:51:56.979Z,36.33
2023-04-07T05:54:24.088Z,40.33
2023-04-07T05:56:51.007Z,28.67
2023-04-07T05:59:17.983Z,35.33
2023-04-07T06:01:45.262Z,30.33
2023-04-07T06:04:12.475Z,33.67
2023-04-07T06:06:39.490Z,34.33
2023-04-07T06:09:08.134Z,33.33
2023-04-07T06:11:35.314Z,21.67
2023-04-07T06:14:02.268Z,34.67
2023-04-07T06:16:29.384Z,27.33
2023-04-07T06:18:56.529Z,31.67
2023-04-07T06:21:23.760Z,7.33
2023-04-07T06:23:51.287Z,24.00
2023-04-07T06:26:18.647Z,30.00
2023-04-07T06:28:45.706Z,22.33
2023-04-07T06:31:12.804Z,27.00
2023-04-07T06:33:39.851Z,23.33
2023-04-07T06:36:07.284Z,27.33
2023-04-07T06:38:34.255Z,32.67
2023-04-07T06:41:01.294Z,28.00
2023-04-07T06:43:28.349Z,24.67
2023-04-07T06:45:55.333Z,26.00
2023-04-07T06:48:22.637Z,28.00
2023-04-07T06:50:50.813Z,22.00
2023-04-07T06:53:17.861Z,27.00
2023-04-07T06:55:44.968Z,28.33
2023-04-07T06:58:12.093Z,27.67
2023-04-07T07:00:39.173Z,31.00
2023-04-07T07:03:06.828Z,30.00
2023-04-07T07:05:33.935Z,24.00
2023-04-07T07:08:01.247Z,27.67
2023-04-07T07:10:28.316Z,26.33
2023-04-07T07:12:55.563Z,24.67
2023-04-07T07:15:22.543Z,27.33
2023-04-07T07:17:49.601Z,26.67
2023-04-07T07:20:16.678Z,24.33
2023-04-07T07:22:43.661Z,22.67
2023-04-07T07:25:11.052Z,24.67
2023-04-07T07:27:38.043Z,29.00
2023-04-07T07:30:06.820Z,31.33
2023-04-07T07:32:33.816Z,27.67
2023-04-07T07:35:00.951Z,33.33
2023-04-07T07:37:28.387Z,20.67
2023-04-07T07:39:56.531Z,28.00
2023-04-07T07:42:23.593Z,30.33
2023-04-07T07:44:51.252Z,32.00
2023-04-07T07:47:18.652Z,33.33
2023-04-07T07:49:45.726Z,29.67
2023-04-07T07:52:12.767Z,32.00
2023-04-07T07:54:39.716Z,30.00
2023-04-07T07:57:06.776Z,31.00
2023-04-07T07:59:33.971Z,35.67
2023-04-07T08:02:01.300Z,35.33
2023-04-07T08:04:28.333Z,28.00
2023-04-07T08:06:55.481Z,28.67
2023-04-07T08:09:22.600Z,34.67
2023-04-07T08:11:49.557Z,29.33
2023-04-07T08:14:16.775Z,33.67
2023-04-07T08:16:44.793Z,31.67
2023-04-07T08:19:12.649Z,30.33
2023-04-07T08:21:39.904Z,31.00
2023-04-07T08:24:07.685Z,25.67
2023-04-07T08:26:34.661Z,28.67
2023-04-07T08:29:01.704Z,30.33
2023-04-07T08:31:28.789Z,29.00
2023-04-07T08:33:58.456Z,32.67
2023-04-07T08:36:28.239Z,34.33
2023-04-07T08:38:55.350Z,39.00
2023-04-07T08:41:31.113Z,29.00
2023-04-07T08:43:58.685Z,28.33
2023-04-07T08:46:28.283Z,25.00
2023-04-07T08:48:57.148Z,34.00
2023-04-07T08:51:33.703Z,36.67
2023-04-07T08:54:14.821Z,34.33
2023-04-07T08:56:43.688Z,33.67
2023-04-07T08:59:15.628Z,38.67
2023-04-07T09:01:42.819Z,33.67
2023-04-07T09:04:11.049Z,35.00
2023-04-07T09:06:38.694Z,31.33
2023-04-07T09:09:06.555Z,33.00
2023-04-07T09:11:37.555Z,35.00
2023-04-07T09:14:04.720Z,41.00
2023-04-07T09:16:32.415Z,39.00
2023-04-07T09:19:00.113Z,40.00
2023-04-07T09:21:30.227Z,37.00
2023-04-07T09:23:57.312Z,40.00
2023-04-07T09:26:29.932Z,41.00
2023-04-07T09:29:01.666Z,40.33
2023-04-07T09:31:45.194Z,38.33
2023-04-07T09:34:29.433Z,39.67
2023-04-07T09:36:57.662Z,32.00
2023-04-07T09:39:26.172Z,33.67
2023-04-07T09:41:53.855Z,39.33
2023-04-07T09:44:22.599Z,34.00
2023-04-07T09:46:53.786Z,33.67
2023-04-07T09:49:21.799Z,35.00
2023-04-07T09:52:07.992Z,40.00
2023-04-07T09:54:41.558Z,36.33
2023-04-07T09:57:10.943Z,38.67
2023-04-07T09:59:40.028Z,39.67
2023-04-07T10:02:08.111Z,42.00
2023-04-07T10:04:35.318Z,39.00
2023-04-07T10:07:03.904Z,39.67
2023-04-07T10:09:31.724Z,40.67
2023-04-07T10:12:00.204Z,36.67
2023-04-07T10:14:32.135Z,29.00
2023-04-07T10:17:01.887Z,39.00
2023-04-07T10:19:33.692Z,37.67
2023-04-07T10:22:03.412Z,30.00
2023-04-07T10:24:36.606Z,36.33
2023-04-07T10:27:11.947Z,31.67
2023-04-07T10:29:44.002Z,33.00
2023-04-07T10:32:11.408Z,30.33
2023-04-07T10:34:50.528Z,39.67
2023-04-07T10:37:21.418Z,34.00
2023-04-07T10:39:53.221Z,43.00
2023-04-07T10:42:38.301Z,37.33
2023-04-07T10:45:07.293Z,31.33
2023-04-07T10:47:34.463Z,32.67
2023-04-07T10:50:22.520Z,33.33
2023-04-07T10:53:04.832Z,36.33
2023-04-07T10:55:36.301Z,36.00
2023-04-07T10:58:31.381Z,33.67
2023-04-07T11:01:06.947Z,29.33
2023-04-07T11:03:38.750Z,32.67
2023-04-07T11:06:08.749Z,27.33
2023-04-07T11:08:38.258Z,35.33
2023-04-07T11:11:09.785Z,36.33
2023-04-07T11:13:49.558Z,27.33
2023-04-07T11:16:19.212Z,39.00
2023-04-07T11:18:51.113Z,37.00
2023-04-07T11:21:19.289Z,35.33
2023-04-07T11:23:48.393Z,32.33
2023-04-07T11:26:16.653Z,37.00
2023-04-07T11:28:50.371Z,32.67
2023-04-07T11:31:31.895Z,36.67
2023-04-07T11:34:04.948Z,38.00
2023-04-07T11:36:40.649Z,33.50
2023-04-07T11:39:21.635Z,38.33
2023-04-07T11:41:50.844Z,35.00
2023-04-07T11:44:18.320Z,40.67
2023-04-07T11:47:00.056Z,37.33
2023-04-07T11:49:28.989Z,38.00
2023-04-07T11:52:09.768Z,38.67
2023-04-07T11:54:44.183Z,39.67
2023-04-07T11:57:13.197Z,37.33
2023-04-07T11:59:42.625Z,45.00
2023-04-07T12:02:10.045Z,42.33
2023-04-07T12:04:40.441Z,34.67
2023-04-07T12:07:10.019Z,46.00
2023-04-07T12:09:38.215Z,46.00
2023-04-07T12:12:08.122Z,44.67
2023-04-07T12:14:35.893Z,41.00
2023-04-07T12:17:04.280Z,39.67
2023-04-07T12:19:36.439Z,41.67
2023-04-07T12:22:04.052Z,41.00
2023-04-07T12:24:32.625Z,30.33
2023-04-07T12:26:59.966Z,40.00
2023-04-07T12:29:27.119Z,41.00
2023-04-07T12:31:54.140Z,41.67
2023-04-07T12:34:21.238Z,37.33
2023-04-07T12:36:48.606Z,41.00
2023-04-07T12:39:16.392Z,38.00
2023-04-07T12:41:45.096Z,40.67
2023-04-07T12:44:12.312Z,38.67
2023-04-07T12:46:39.310Z,33.00
2023-04-07T12:49:06.405Z,37.67
2023-04-07T12:51:36.713Z,32.00
2023-04-07T12:54:04.192Z,41.00
2023-04-07T12:56:31.849Z,43.33
2023-04-07T12:58:58.890Z,40.67
2023-04-07T13:01:26.270Z,36.67
2023-04-07T13:03:53.904Z,37.00
2023-04-07T13:06:21.179Z,34.33
2023-04-07T13:08:48.230Z,34.67
2023-04-07T13:11:15.147Z,31.00
2023-04-07T13:13:42.114Z,31.67
2023-04-07T13:16:09.234Z,33.00
2023-04-07T13:18:36.919Z,34.67
2023-04-07T13:23:42.877Z,31.33
2023-04-07T13:26:11.048Z,30.75
2023-04-07T13:28:38.331Z,29.00
2023-04-07T13:31:05.438Z,22.33
2023-04-07T13:33:32.428Z,27.25
2023-04-07T13:35:59.482Z,31.33
2023-04-07T13:38:26.876Z,29.50
2023-04-07T13:40:53.845Z,23.67
2023-04-07T13:43:20.846Z,27.50
2023-04-07T13:45:48.925Z,24.50
2023-04-07T13:48:16.126Z,26.67
2023-04-07T13:50:43.171Z,23.00
2023-04-07T13:53:10.334Z,23.75
2023-04-07T13:55:37.411Z,22.50
2023-04-07T13:58:04.448Z,17.00
2023-04-07T14:00:31.621Z,21.00
2023-04-07T14:02:58.905Z,23.50
2023-04-07T14:05:26.025Z,27.00
2023-04-07T14:07:53.150Z,26.00
2023-04-07T14:10:20.178Z,29.25
2023-04-07T14:12:47.367Z,28.67
2023-04-07T14:15:15.197Z,32.67
2023-04-07T14:17:43.401Z,29.50
2023-04-07T14:20:10.843Z,25.67
2023-04-07T14:22:37.844Z,23.00
2023-04-07T14:25:05.972Z,23.75
2023-04-07T14:27:33.699Z,32.00
2023-04-07T14:30:00.782Z,31.00
2023-04-07T14:32:29.977Z,28.33
2023-04-07T14:34:59.491Z,22.75
2023-04-07T14:37:26.815Z,31.33
2023-04-07T14:40:02.540Z,27.75
2023-04-07T14:42:30.885Z,21.00
2023-04-07T14:44:59.783Z,18.00
2023-04-07T14:47:27.889Z,16.00
2023-04-07T14:49:55.696Z,12.75
2023-04-07T14:52:22.727Z,17.75
2023-04-07T14:54:49.930Z,16.00
2023-04-07T14:57:17.214Z,25.25
2023-04-07T14:59:44.558Z,24.50
2023-04-07T15:02:11.664Z,21.25
2023-04-07T15:04:39.093Z,17.50
2023-04-07T15:07:06.353Z,14.00
2023-04-07T15:09:33.456Z,12.00
2023-04-07T15:12:05.283Z,17.25
2023-04-07T15:14:32.341Z,20.25
2023-04-07T15:16:59.325Z,23.00
2023-04-07T15:19:26.288Z,15.50
2023-04-07T15:21:53.258Z,12.50
2023-04-07T15:24:21.664Z,10.00
2023-04-07T15:26:49.618Z,13.25
2023-04-07T15:29:16.803Z,17.50
2023-04-07T15:31:43.833Z,16.00
2023-04-07T15:34:10.900Z,11.25
2023-04-07T15:36:37.888Z,15.00
2023-04-07T15:39:05.903Z,14.75
2023-04-07T15:41:33.876Z,34.25
2023-04-07T15:44:01.533Z,28.75
2023-04-07T15:46:28.606Z,22.75
2023-04-07T15:48:55.730Z,4.50
2023-04-07T15:51:22.916Z,17.25
2023-04-07T15:53:50.230Z,14.50
2023-04-07T15:56:17.427Z,12.00
2023-04-07T15:58:45.745Z,18.00
2023-04-07T16:01:13.165Z,12.25
2023-04-07T16:03:40.362Z,7.25
2023-04-07T16:06:07.418Z,7.25
2023-04-07T16:08:34.412Z,10.25
2023-04-07T16:11:01.497Z,9.00
2023-04-07T16:13:28.460Z,11.75
2023-04-07T16:15:58.727Z,9.25
2023-04-07T16:18:25.920Z,7.50
2023-04-07T16:20:52.939Z,8.00
2023-04-07T16:23:20.022Z,6.75
2023-04-07T16:25:47.061Z,6.00
2023-04-07T16:28:14.071Z,15.50
2023-04-07T16:30:41.217Z,23.75
2023-04-07T16:33:08.252Z,28.50
2023-04-07T16:35:35.303Z,29.25
2023-04-07T16:38:06.387Z,19.75
2023-04-07T16:40:33.694Z,32.00
2023-04-07T16:43:00.819Z,31.75
2023-04-07T16:45:27.942Z,25.00
2023-04-07T16:47:55.084Z,21.25
2023-04-07T16:50:22.184Z,19.50
2023-04-07T16:52:49.262Z,5.00
2023-04-07T16:55:16.330Z,17.50
2023-04-07T16:57:43.395Z,21.00
2023-04-07T17:00:11.010Z,15.00
2023-04-07T17:02:38.224Z,14.75
2023-04-07T17:05:05.711Z,9.75
2023-04-07T17:07:32.713Z,5.25
2023-04-07T17:09:59.946Z,6.00
2023-04-07T17:12:27.133Z,8.00
2023-04-07T17:14:54.133Z,10.50
2023-04-07T17:17:21.175Z,7.25
2023-04-07T17:19:48.148Z,11.00
2023-04-07T17:22:15.191Z,13.75
2023-04-07T17:24:42.198Z,11.50
2023-04-07T17:27:09.415Z,7.50
2023-04-07T17:29:36.425Z,7.00
2023-04-07T17:32:03.550Z,10.25
2023-04-07T17:34:30.640Z,6.25
2023-04-07T17:36:57.602Z,8.25
2023-04-07T17:39:24.572Z,7.50
2023-04-07T17:41:52.122Z,6.25
2023-04-07T17:44:19.147Z,8.00
2023-04-07T17:46:46.328Z,16.00
2023-04-07T17:49:13.450Z,12.25
2023-04-07T17:51:40.470Z,7.00
2023-04-07T17:54:07.854Z,6.25
2023-04-07T17:56:34.847Z,10.00
2023-04-07T17:59:01.963Z,7.00
2023-04-07T18:01:29.034Z,9.75
2023-04-07T18:03:56.110Z,3.00
2023-04-07T18:06:23.717Z,7.00
2023-04-07T18:08:51.526Z,12.25
2023-04-07T18:11:22.550Z,13.00
2023-04-07T18:13:49.763Z,6.75
2023-04-07T18:16:22.017Z,5.75
2023-04-07T18:18:49.725Z,2.75
2023-04-07T18:21:16.828Z,12.00
2023-04-07T18:23:43.857Z,13.00
2023-04-07T18:26:10.933Z,12.50
2023-04-07T18:28:38.042Z,7.25
2023-04-07T18:31:07.937Z,5.25
2023-04-07T18:33:36.033Z,10.75
2023-04-07T18:36:05.002Z,6.25
2023-04-07T18:38:31.991Z,5.25
2023-04-07T18:40:59.761Z,9.00
2023-04-07T18:43:26.855Z,6.50
2023-04-07T18:45:54.566Z,16.00
2023-04-07T18:48:21.932Z,10.75
2023-04-07T18:50:56.751Z,12.00
2023-04-07T18:53:25.259Z,13.75
2023-04-07T18:55:52.299Z,10.50
2023-04-07T18:58:20.225Z,5.25
2023-04-07T19:00:53.213Z,14.25
2023-04-07T19:03:23.438Z,19.25
2023-04-07T19:05:52.579Z,11.75
2023-04-07T19:08:19.836Z,14.50
2023-04-07T19:10:47.429Z,16.50
2023-04-07T19:13:16.488Z,17.75
2023-04-07T19:15:46.358Z,16.25
2023-04-07T19:18:13.481Z,12.75
2023-04-07T19:20:40.834Z,12.00
2023-04-07T19:23:08.164Z,19.00
2023-04-07T19:25:35.698Z,14.75
2023-04-07T19:28:03.457Z,11.25
2023-04-07T19:30:30.411Z,16.00
2023-04-07T19:33:09.971Z,11.00
2023-04-07T19:35:39.242Z,11.00
2023-04-07T19:38:06.399Z,7.25
2023-04-07T19:40:33.795Z,12.00
2023-04-07T19:43:00.830Z,12.75
2023-04-07T19:45:28.050Z,10.00
2023-04-07T19:47:57.046Z,9.00
2023-04-07T19:50:24.205Z,8.00
2023-04-07T19:52:53.575Z,5.50
2023-04-07T19:55:20.810Z,7.00
2023-04-07T19:57:48.938Z,9.50
2023-04-07T20:00:16.341Z,11.75
2023-04-07T20:02:43.576Z,3.00
2023-04-07T20:05:10.721Z,4.00
2023-04-07T20:07:37.717Z,7.00
2023-04-07T20:10:05.044Z,4.00
2023-04-07T20:12:32.143Z,8.50
2023-04-07T20:14:59.215Z,30.50
2023-04-07T20:17:28.424Z,18.50
2023-04-07T20:19:55.944Z,15.50
2023-04-07T20:22:23.302Z,10.75
2023-04-07T20:24:50.242Z,7.00
2023-04-07T20:27:18.576Z,10.00
2023-04-07T20:29:45.750Z,3.50
2023-04-07T20:32:13.186Z,7.50
2023-04-07T20:34:40.099Z,5.00
2023-04-07T20:37:07.111Z,5.50
2023-04-07T20:39:34.117Z,6.25
2023-04-07T20:42:02.006Z,6.50
2023-04-07T20:44:29.599Z,3.00
2023-04-07T20:46:56.874Z,4.50
2023-04-07T20:49:23.884Z,3.00
2023-04-07T20:51:50.900Z,4.50
2023-04-07T20:54:18.522Z,7.50
2023-04-07T20:56:45.570Z,4.00
2023-04-07T20:59:12.504Z,10.75
2023-04-07T21:01:39.673Z,8.00
2023-04-07T21:04:07.202Z,11.75
2023-04-07T21:06:34.371Z,28.75
2023-04-07T21:09:01.617Z,35.25
2023-04-07T21:11:28.680Z,44.67
2023-04-07T21:13:55.695Z,40.67
2023-04-07T21:16:22.927Z,45.00
2023-04-07T21:18:50.116Z,39.67
2023-04-07T21:21:17.306Z,38.00
2023-04-07T21:23:44.450Z,40.00
2023-04-07T21:26:11.483Z,40.00
2023-04-07T21:28:40.613Z,37.33
2023-04-07T21:31:08.411Z,36.67
2023-04-07T21:33:35.823Z,35.67
2023-04-07T21:36:04.075Z,28.25
2023-04-07T21:38:31.678Z,35.50
2023-04-07T21:40:58.697Z,35.00
2023-04-07T21:43:26.752Z,34.00
2023-04-07T21:45:53.918Z,24.25
2023-04-07T21:48:23.892Z,38.00
2023-04-07T21:50:54.045Z,28.33
2023-04-07T21:53:21.251Z,30.75
2023-04-07T21:55:48.284Z,32.00
2023-04-07T21:58:15.270Z,32.67
2023-04-07T22:00:42.448Z,27.75
2023-04-07T22:03:10.236Z,28.75
2023-04-07T22:05:37.344Z,25.75
2023-04-07T22:08:04.330Z,31.50
2023-04-07T22:10:31.802Z,27.50
2023-04-07T22:12:58.910Z,34.67
2023-04-07T22:15:25.935Z,33.00
2023-04-07T22:17:52.996Z,26.50
2023-04-07T22:20:20.121Z,28.00
2023-04-07T22:22:47.036Z,26.25
2023-04-07T22:25:14.066Z,27.75
2023-04-07T22:27:41.089Z,24.75
2023-04-07T22:30:11.141Z,31.25
2023-04-07T22:32:38.375Z,32.67
2023-04-07T22:35:06.141Z,28.33
2023-04-07T22:37:33.267Z,27.33
2023-04-07T22:40:00.307Z,31.00
2023-04-07T22:42:27.389Z,31.33
2023-04-07T22:44:54.375Z,31.00
2023-04-07T22:47:22.656Z,22.00
2023-04-07T22:49:49.933Z,29.75
2023-04-07T22:52:16.901Z,30.00
2023-04-07T22:54:43.949Z,27.25
2023-04-07T22:57:10.946Z,26.67
2023-04-07T22:59:38.324Z,25.00
2023-04-07T23:02:05.618Z,27.33
2023-04-07T23:04:32.796Z,26.50
2023-04-07T23:06:59.759Z,25.25
2023-04-07T23:09:27.853Z,29.50
2023-04-07T23:11:54.837Z,34.00
2023-04-07T23:14:21.940Z,28.75
2023-04-07T23:16:49.043Z,31.00
2023-04-07T23:19:16.156Z,20.33
2023-04-07T23:21:43.850Z,30.25
2023-04-07T23:24:11.141Z,28.25
2023-04-07T23:26:38.210Z,32.33
2023-04-07T23:29:05.337Z,26.67
2023-04-07T23:31:32.546Z,23.75
2023-04-07T23:34:00.093Z,30.00
2023-04-07T23:36:28.205Z,30.67
2023-04-07T23:38:59.071Z,29.00
2023-04-07T23:41:26.095Z,25.25
2023-04-07T23:43:53.031Z,21.33
2023-04-07T23:46:20.077Z,22.00
2023-04-07T23:48:47.313Z,24.50
2023-04-07T23:51:14.859Z,20.00
2023-04-07T23:53:41.823Z,27.25
2023-04-07T23:56:08.913Z,23.25
2023-04-07T23:58:36.049Z,20.00
